createdAt,value
2023-02-02T00:00:04.758Z,76.54
2023-02-02T00:01:37.457Z,76.29
2023-02-02T00:03:10.793Z,76.57
2023-02-02T00:04:42.395Z,75.84
2023-02-02T00:06:23.849Z,76.58
2023-02-02T00:07:55.502Z,76.81
2023-02-02T00:09:30.219Z,76.22
2023-02-02T00:11:02.503Z,75.91
2023-02-02T00:12:35.069Z,75.91
2023-02-02T00:14:07.918Z,76.16
2023-02-02T00:15:40.009Z,76.20
2023-02-02T00:17:11.780Z,76.47
2023-02-02T00:18:43.456Z,76.40
2023-02-02T00:20:15.434Z,76.49
2023-02-02T00:21:47.796Z,76.36
2023-02-02T00:23:19.694Z,76.59
2023-02-02T00:24:51.321Z,77.03
2023-02-02T00:26:23.691Z,76.76
2023-02-02T00:27:55.735Z,76.73
2023-02-02T00:29:29.807Z,77.85
2023-02-02T00:31:01.600Z,77.70
2023-02-02T00:32:33.492Z,77.71
2023-02-02T00:34:05.225Z,77.93
2023-02-02T00:35:40.744Z,77.01
2023-02-02T00:37:12.360Z,77.74
2023-02-02T00:38:44.446Z,77.90
2023-02-02T00:40:16.296Z,77.65
2023-02-02T00:41:48.547Z,77.18
2023-02-02T00:43:20.159Z,77.27
2023-02-02T00:45:10.122Z,77.37
2023-02-02T00:46:42.315Z,77.17
2023-02-02T00:48:13.867Z,77.49
2023-02-02T00:49:45.680Z,77.33
2023-02-02T00:51:17.251Z,78.33
2023-02-02T00:52:49.458Z,77.52
2023-02-02T00:54:21.078Z,77.71
2023-02-02T00:55:52.656Z,77.89
2023-02-02T00:57:24.180Z,78.33
2023-02-02T00:58:55.963Z,77.63
2023-02-02T01:00:28.687Z,77.45
2023-02-02T01:02:01.279Z,76.78
2023-02-02T01:03:32.886Z,76.84
2023-02-02T01:05:04.700Z,76.80
2023-02-02T01:06:38.009Z,77.50
2023-02-02T01:08:09.622Z,77.06
2023-02-02T01:09:41.153Z,76.44
2023-02-02T01:11:12.833Z,76.44
2023-02-02T01:12:45.016Z,77.06
2023-02-02T01:14:17.365Z,77.40
2023-02-02T01:15:48.892Z,77.15
2023-02-02T01:17:20.615Z,76.54
2023-02-02T01:18:52.368Z,76.58
2023-02-02T01:20:24.444Z,76.82
2023-02-02T01:21:56.276Z,76.59
2023-02-02T01:23:28.563Z,76.88
2023-02-02T01:25:00.918Z,76.20
2023-02-02T01:26:32.798Z,76.29
2023-02-02T01:28:05.445Z,76.41
2023-02-02T01:29:36.974Z,76.73
2023-02-02T01:31:15.609Z,77.01
2023-02-02T01:32:47.213Z,76.85
2023-02-02T01:34:18.876Z,76.93
2023-02-02T01:35:53.659Z,77.10
2023-02-02T01:37:25.224Z,77.12
2023-02-02T01:38:57.032Z,77.31
2023-02-02T01:40:28.997Z,77.20
2023-02-02T01:42:00.651Z,77.52
2023-02-02T01:43:44.464Z,76.87
2023-02-02T01:45:27.828Z,77.05
2023-02-02T01:46:59.478Z,77.03
2023-02-02T01:48:34.439Z,76.56
2023-02-02T01:50:09.364Z,77.13
2023-02-02T01:51:47.844Z,77.50
2023-02-02T01:53:20.668Z,77.71
2023-02-02T01:54:56.428Z,78.26
2023-02-02T01:56:37.492Z,77.27
2023-02-02T01:58:18.861Z,77.46
2023-02-02T01:59:54.504Z,77.34
2023-02-02T02:01:26.769Z,77.27
2023-02-02T02:03:08.179Z,77.26
2023-02-02T02:04:42.388Z,77.75
2023-02-02T02:06:17.795Z,77.75
2023-02-02T02:07:52.287Z,77.24
2023-02-02T02:09:23.910Z,77.08
2023-02-02T02:10:56.323Z,77.12
2023-02-02T02:12:27.968Z,76.67
2023-02-02T02:14:21.698Z,77.26
2023-02-02T02:16:21.391Z,77.54
2023-02-02T02:18:45.337Z,76.95
2023-02-02T02:21:09.632Z,77.30
2023-02-02T02:23:27.855Z,76.37
2023-02-02T02:25:33.410Z,76.81
2023-02-02T02:27:51.773Z,76.57
2023-02-02T02:29:44.930Z,77.41
2023-02-02T02:31:46.077Z,78.24
2023-02-02T02:33:26.314Z,78.09
2023-02-02T02:35:21.297Z,78.32
2023-02-02T02:37:26.889Z,78.01
2023-02-02T02:39:13.313Z,78.72
2023-02-02T02:41:00.567Z,78.54
2023-02-02T02:42:38.581Z,79.13
2023-02-02T02:44:14.683Z,78.59
2023-02-02T02:45:46.593Z,79.20
2023-02-02T02:47:20.180Z,80.43
2023-02-02T02:48:52.594Z,79.83
2023-02-02T02:50:24.471Z,79.84
2023-02-02T02:51:56.667Z,79.81
2023-02-02T02:53:38.484Z,80.24
2023-02-02T02:55:11.865Z,80.50
2023-02-02T02:56:52.431Z,79.99
2023-02-02T02:58:50.145Z,79.74
2023-02-02T03:00:24.708Z,80.50
2023-02-02T03:02:10.950Z,80.72
2023-02-02T03:04:06.815Z,80.55
2023-02-02T03:06:00.724Z,80.76
2023-02-02T03:07:42.441Z,80.63
2023-02-02T03:09:21.418Z,80.78
2023-02-02T03:10:55.591Z,80.76
2023-02-02T03:12:27.372Z,80.86
2023-02-02T03:13:59.016Z,80.95
2023-02-02T03:15:30.658Z,80.59
2023-02-02T03:17:02.427Z,80.73
2023-02-02T03:18:34.771Z,79.12
2023-02-02T03:20:06.835Z,80.15
2023-02-02T03:21:38.452Z,79.04
2023-02-02T03:23:10.052Z,79.25
2023-02-02T03:24:41.570Z,79.46
2023-02-02T03:26:13.176Z,79.64
2023-02-02T03:27:44.965Z,79.43
2023-02-02T03:29:17.270Z,78.84
2023-02-02T03:30:49.508Z,78.73
2023-02-02T03:32:21.378Z,78.95
2023-02-02T03:33:52.938Z,78.95
2023-02-02T03:35:26.054Z,78.90
2023-02-02T03:36:57.784Z,79.76
2023-02-02T03:38:29.351Z,79.28
2023-02-02T03:40:00.979Z,79.40
2023-02-02T03:41:32.587Z,79.10
2023-02-02T03:43:04.754Z,79.11
2023-02-02T03:44:36.432Z,78.81
2023-02-02T03:46:08.329Z,79.34
2023-02-02T03:47:39.957Z,79.48
2023-02-02T03:49:11.556Z,79.57
2023-02-02T03:50:43.093Z,79.60
2023-02-02T03:52:14.680Z,79.60
2023-02-02T03:53:49.280Z,79.62
2023-02-02T03:55:21.917Z,79.62
2023-02-02T03:56:53.737Z,79.60
2023-02-02T03:58:25.311Z,79.73
2023-02-02T03:59:57.031Z,79.99
2023-02-02T04:01:29.836Z,80.31
2023-02-02T04:03:01.640Z,79.75
2023-02-02T04:04:33.671Z,79.65
2023-02-02T04:06:05.469Z,79.40
2023-02-02T04:07:37.055Z,79.80
2023-02-02T04:09:09.036Z,79.64
2023-02-02T04:10:42.460Z,79.36
2023-02-02T04:12:14.100Z,79.22
2023-02-02T04:13:45.643Z,79.92
2023-02-02T04:15:17.263Z,79.61
2023-02-02T04:16:48.828Z,79.82
2023-02-02T04:18:20.368Z,79.73
2023-02-02T04:19:58.048Z,79.39
2023-02-02T04:21:29.692Z,79.23
2023-02-02T04:23:01.352Z,79.08
2023-02-02T04:24:32.936Z,79.13
2023-02-02T04:26:05.440Z,79.42
2023-02-02T04:27:37.110Z,80.24
2023-02-02T04:29:09.012Z,80.01
2023-02-02T04:30:40.632Z,79.72
2023-02-02T04:32:14.181Z,79.77
2023-02-02T04:33:45.813Z,79.83
2023-02-02T04:35:17.478Z,80.03
2023-02-02T04:36:49.100Z,79.58
2023-02-02T04:38:20.781Z,79.83
2023-02-02T04:39:53.847Z,79.82
2023-02-02T04:41:25.446Z,79.69
2023-02-02T04:42:58.357Z,79.89
2023-02-02T04:44:29.907Z,79.42
2023-02-02T04:46:01.713Z,79.09
2023-02-02T04:47:33.315Z,79.52
2023-02-02T04:49:04.878Z,79.63
2023-02-02T04:50:36.508Z,80.10
2023-02-02T04:52:08.166Z,79.73
2023-02-02T04:53:42.444Z,80.25
2023-02-02T04:55:14.364Z,79.64
2023-02-02T04:56:45.975Z,79.89
2023-02-02T04:58:17.518Z,79.88
2023-02-02T04:59:49.099Z,79.94
2023-02-02T05:01:20.994Z,79.97
2023-02-02T05:02:52.647Z,79.43
2023-02-02T05:04:24.329Z,79.68
2023-02-02T05:06:03.133Z,80.14
2023-02-02T05:07:34.910Z,79.85
2023-02-02T05:09:06.585Z,80.04
2023-02-02T05:10:41.599Z,79.87
2023-02-02T05:12:13.185Z,79.72
2023-02-02T05:13:49.648Z,80.00
2023-02-02T05:15:22.518Z,80.00
2023-02-02T05:16:54.494Z,79.86
2023-02-02T05:18:26.333Z,80.01
2023-02-02T05:19:57.977Z,80.17
2023-02-02T05:21:29.651Z,80.50
2023-02-02T05:23:01.274Z,80.08
2023-02-02T05:24:32.890Z,79.70
2023-02-02T05:26:04.712Z,79.85
2023-02-02T05:27:36.316Z,79.74
2023-02-02T05:29:09.226Z,79.65
2023-02-02T05:30:40.862Z,80.22
2023-02-02T05:32:12.498Z,80.33
2023-02-02T05:33:44.311Z,80.17
2023-02-02T05:35:16.086Z,80.10
2023-02-02T05:36:47.792Z,80.05
2023-02-02T05:38:19.347Z,80.13
2023-02-02T05:39:52.198Z,79.68
2023-02-02T05:41:23.878Z,80.12
2023-02-02T05:42:55.440Z,80.06
2023-02-02T05:44:27.090Z,80.50
2023-02-02T05:45:59.081Z,79.98
2023-02-02T05:47:30.760Z,80.03
2023-02-02T05:49:05.150Z,80.19
2023-02-02T05:50:36.747Z,80.47
2023-02-02T05:52:17.722Z,80.60
2023-02-02T05:53:49.713Z,80.74
2023-02-02T05:55:21.392Z,81.04
2023-02-02T05:56:55.879Z,80.53
2023-02-02T05:58:28.198Z,80.82
2023-02-02T05:59:59.862Z,80.72
2023-02-02T06:01:31.523Z,81.23
2023-02-02T06:03:03.303Z,80.82
2023-02-02T06:04:34.902Z,80.68
2023-02-02T06:06:07.157Z,80.70
2023-02-02T06:07:38.904Z,81.56
2023-02-02T06:09:10.771Z,81.42
2023-02-02T06:10:42.559Z,81.69
2023-02-02T06:12:14.195Z,81.58
2023-02-02T06:13:46.230Z,81.68
2023-02-02T06:15:17.938Z,81.60
2023-02-02T06:16:49.588Z,81.75
2023-02-02T06:18:21.295Z,81.75
2023-02-02T06:19:52.993Z,81.56
2023-02-02T06:21:24.809Z,81.92
2023-02-02T06:22:56.381Z,81.78
2023-02-02T06:24:28.018Z,82.20
2023-02-02T06:25:59.931Z,82.15
2023-02-02T06:27:31.675Z,82.78
2023-02-02T06:29:03.523Z,82.69
2023-02-02T06:30:35.201Z,82.42
2023-02-02T06:32:06.839Z,82.62
2023-02-02T06:33:38.706Z,82.60
2023-02-02T06:35:10.414Z,82.78
2023-02-02T06:36:42.114Z,82.99
2023-02-02T06:38:13.790Z,82.53
2023-02-02T06:39:45.423Z,82.28
2023-02-02T06:41:17.845Z,82.57
2023-02-02T06:42:55.836Z,83.08
2023-02-02T06:44:27.695Z,83.34
2023-02-02T06:45:59.425Z,83.36
2023-02-02T06:47:33.039Z,82.63
2023-02-02T06:49:04.637Z,82.96
2023-02-02T06:50:39.097Z,82.52
2023-02-02T06:52:10.780Z,82.80
2023-02-02T06:53:42.400Z,82.79
2023-02-02T06:55:14.004Z,82.27
2023-02-02T06:56:45.636Z,82.84
2023-02-02T06:58:17.200Z,83.21
2023-02-02T06:59:48.831Z,82.40
2023-02-02T07:01:20.544Z,82.45
2023-02-02T07:02:52.328Z,82.47
2023-02-02T07:04:24.112Z,82.54
2023-02-02T07:05:55.715Z,82.13
2023-02-02T07:07:27.814Z,82.23
2023-02-02T07:09:02.766Z,82.02
2023-02-02T07:11:14.363Z,81.38
2023-02-02T07:12:29.048Z,81.83
2023-02-02T07:14:00.585Z,81.70
2023-02-02T07:15:32.927Z,82.23
2023-02-02T07:17:04.635Z,82.46
2023-02-02T07:18:36.937Z,81.76
2023-02-02T07:20:09.014Z,81.34
2023-02-02T07:21:40.670Z,81.23
2023-02-02T07:23:12.272Z,81.03
2023-02-02T07:24:43.843Z,80.93
2023-02-02T07:26:17.977Z,80.94
2023-02-02T07:27:53.623Z,81.09
2023-02-02T07:29:25.481Z,80.99
2023-02-02T07:30:57.361Z,80.53
2023-02-02T07:32:29.068Z,81.29
2023-02-02T07:34:00.752Z,81.39
2023-02-02T07:35:32.393Z,81.11
2023-02-02T07:37:04.165Z,80.34
2023-02-02T07:38:35.730Z,80.45
2023-02-02T07:40:08.280Z,80.17
2023-02-02T07:41:39.928Z,79.69
2023-02-02T07:43:20.499Z,80.81
2023-02-02T07:44:52.091Z,80.25
2023-02-02T07:46:23.772Z,80.67
2023-02-02T07:47:57.113Z,80.59
2023-02-02T07:49:28.788Z,81.06
2023-02-02T07:51:01.695Z,81.47
2023-02-02T07:52:33.386Z,81.01
2023-02-02T07:54:05.228Z,80.73
2023-02-02T07:55:36.830Z,80.46
2023-02-02T07:57:08.531Z,80.41
2023-02-02T07:58:41.003Z,80.31
2023-02-02T08:00:13.087Z,80.45
2023-02-02T08:01:44.776Z,80.32
2023-02-02T08:03:16.778Z,80.23
2023-02-02T08:04:48.552Z,80.60
2023-02-02T08:06:26.312Z,80.55
2023-02-02T08:07:57.939Z,80.11
2023-02-02T08:09:29.631Z,80.19
2023-02-02T08:11:01.280Z,80.42
2023-02-02T08:12:33.301Z,80.06
2023-02-02T08:14:06.353Z,80.59
2023-02-02T08:15:37.993Z,80.41
2023-02-02T08:17:09.613Z,80.49
2023-02-02T08:18:42.253Z,80.37
2023-02-02T08:20:14.041Z,79.99
2023-02-02T08:21:45.678Z,80.41
2023-02-02T08:23:17.301Z,80.13
2023-02-02T08:24:49.325Z,80.13
2023-02-02T08:26:23.905Z,79.94
2023-02-02T08:28:01.310Z,80.31
2023-02-02T08:29:33.115Z,80.33
2023-02-02T08:31:14.196Z,80.20
2023-02-02T08:32:46.058Z,80.36
2023-02-02T08:34:17.901Z,80.22
2023-02-02T08:35:49.829Z,79.98
2023-02-02T08:37:21.568Z,80.90
2023-02-02T08:38:54.024Z,80.54
2023-02-02T08:40:25.728Z,79.98
2023-02-02T08:41:57.879Z,79.40
2023-02-02T08:43:29.618Z,79.47
2023-02-02T08:46:02.509Z,79.68
2023-02-02T08:46:53.052Z,79.16
2023-02-02T08:48:24.701Z,78.78
2023-02-02T08:49:56.547Z,78.76
2023-02-02T08:51:28.412Z,78.79
2023-02-02T08:52:59.990Z,77.96
2023-02-02T08:54:31.625Z,78.30
2023-02-02T08:56:06.660Z,78.37
2023-02-02T08:57:38.319Z,77.75
2023-02-02T08:59:09.963Z,77.86
2023-02-02T09:00:41.633Z,78.55
2023-02-02T09:02:16.986Z,78.77
2023-02-02T09:03:48.830Z,78.49
2023-02-02T09:05:20.404Z,78.36
2023-02-02T09:06:51.955Z,77.55
2023-02-02T09:08:23.582Z,77.85
2023-02-02T09:09:58.361Z,77.81
2023-02-02T09:11:30.197Z,78.04
2023-02-02T09:13:01.999Z,77.95
2023-02-02T09:14:33.640Z,78.10
2023-02-02T09:16:07.539Z,78.08
2023-02-02T09:17:39.455Z,78.66
2023-02-02T09:19:11.792Z,78.46
2023-02-02T09:20:43.611Z,77.70
2023-02-02T09:22:15.150Z,78.13
2023-02-02T09:23:48.212Z,78.14
2023-02-02T09:25:19.885Z,78.58
2023-02-02T09:26:51.591Z,77.61
2023-02-02T09:28:23.343Z,78.29
2023-02-02T09:29:54.974Z,77.59
2023-02-02T09:31:26.892Z,77.68
2023-02-02T09:32:58.811Z,78.37
2023-02-02T09:34:30.457Z,78.57
2023-02-02T09:36:11.258Z,79.33
2023-02-02T09:37:44.273Z,79.24
2023-02-02T09:39:17.866Z,79.61
2023-02-02T09:40:49.508Z,79.01
2023-02-02T09:42:29.226Z,79.80
2023-02-02T09:44:25.711Z,79.89
2023-02-02T09:46:06.857Z,79.53
2023-02-02T09:47:56.313Z,80.26
2023-02-02T09:49:45.850Z,81.11
2023-02-02T09:51:22.726Z,81.96
2023-02-02T09:53:17.034Z,82.08
2023-02-02T09:54:52.474Z,81.84
2023-02-02T09:56:29.513Z,82.39
2023-02-02T09:58:07.207Z,82.78
2023-02-02T09:59:42.986Z,82.48
2023-02-02T10:01:18.080Z,82.82
2023-02-02T10:02:55.810Z,82.29
2023-02-02T10:04:33.523Z,81.95
2023-02-02T10:06:33.171Z,82.84
2023-02-02T10:08:07.910Z,82.28
2023-02-02T10:09:43.548Z,82.44
2023-02-02T10:11:38.894Z,82.24
2023-02-02T10:13:17.534Z,82.01
2023-02-02T10:15:17.747Z,81.88
2023-02-02T10:16:54.297Z,82.31
2023-02-02T10:18:38.065Z,83.08
2023-02-02T10:20:30.579Z,82.86
2023-02-02T10:22:09.761Z,83.33
2023-02-02T10:23:44.406Z,83.60
2023-02-02T10:25:17.572Z,83.17
2023-02-02T10:26:56.406Z,82.93
2023-02-02T10:28:39.689Z,83.43
2023-02-02T10:30:37.280Z,83.60
2023-02-02T10:32:28.316Z,83.06
2023-02-02T10:34:41.126Z,82.95
2023-02-02T10:36:26.776Z,83.26
2023-02-02T10:38:31.429Z,83.06
2023-02-02T10:40:22.163Z,82.53
2023-02-02T10:42:05.548Z,82.24
2023-02-02T10:43:55.123Z,82.83
2023-02-02T10:45:26.877Z,82.37
2023-02-02T10:47:03.901Z,82.87
2023-02-02T10:48:36.078Z,82.55
2023-02-02T10:50:13.432Z,82.69
2023-02-02T10:51:55.196Z,82.53
2023-02-02T10:53:32.315Z,82.34
2023-02-02T10:55:31.344Z,82.87
2023-02-02T10:57:08.051Z,82.41
2023-02-02T10:58:56.741Z,82.23
2023-02-02T11:00:40.530Z,82.84
2023-02-02T11:02:20.636Z,82.23
2023-02-02T11:04:13.001Z,82.37
2023-02-02T11:06:03.032Z,82.13
2023-02-02T11:07:36.584Z,81.70
2023-02-02T11:09:12.844Z,81.42
2023-02-02T11:10:46.640Z,81.66
2023-02-02T11:12:34.933Z,82.14
2023-02-02T11:14:09.682Z,82.08
2023-02-02T11:15:41.881Z,81.92
2023-02-02T11:17:21.500Z,81.71
2023-02-02T11:18:54.138Z,81.97
2023-02-02T11:20:39.399Z,81.65
2023-02-02T11:22:32.365Z,81.46
2023-02-02T11:24:09.868Z,82.18
2023-02-02T11:25:43.267Z,81.40
2023-02-02T11:27:31.697Z,81.31
2023-02-02T11:29:03.633Z,81.12
2023-02-02T11:30:38.433Z,80.87
2023-02-02T11:32:32.580Z,82.02
2023-02-02T11:34:20.472Z,81.65
2023-02-02T11:36:00.215Z,82.33
2023-02-02T11:37:36.743Z,82.49
2023-02-02T11:39:24.488Z,82.11
2023-02-02T11:41:05.318Z,81.91
2023-02-02T11:42:37.062Z,81.45
2023-02-02T11:44:25.331Z,80.87
2023-02-02T11:46:04.016Z,81.14
2023-02-02T11:47:35.938Z,80.82
2023-02-02T11:49:16.785Z,81.22
2023-02-02T11:50:54.061Z,82.10
2023-02-02T11:52:27.909Z,82.09
2023-02-02T11:54:16.183Z,81.83
2023-02-02T11:55:47.953Z,81.44
2023-02-02T11:57:22.866Z,82.08
2023-02-02T11:58:56.672Z,81.54
2023-02-02T12:00:28.847Z,81.55
2023-02-02T12:02:30.708Z,80.80
2023-02-02T12:04:22.002Z,81.43
2023-02-02T12:05:54.077Z,80.79
2023-02-02T12:07:27.766Z,80.96
2023-02-02T12:09:02.394Z,80.06
2023-02-02T12:10:47.031Z,80.14
2023-02-02T12:12:34.446Z,80.86
2023-02-02T12:14:28.700Z,80.58
2023-02-02T12:16:26.133Z,80.66
2023-02-02T12:18:40.090Z,80.74
2023-02-02T12:20:27.869Z,81.11
2023-02-02T12:22:11.523Z,81.28
2023-02-02T12:24:05.024Z,81.85
2023-02-02T12:26:14.258Z,81.25
2023-02-02T12:27:48.937Z,81.61
2023-02-02T12:29:29.725Z,81.84
2023-02-02T12:31:20.061Z,81.71
2023-02-02T12:33:10.458Z,81.35
2023-02-02T12:34:51.565Z,80.60
2023-02-02T12:36:44.039Z,79.96
2023-02-02T12:38:33.774Z,79.95
2023-02-02T12:40:45.946Z,81.05
2023-02-02T12:42:48.117Z,81.50
2023-02-02T12:44:32.436Z,80.71
2023-02-02T12:46:22.800Z,80.01
2023-02-02T12:48:03.836Z,80.59
2023-02-02T12:49:54.257Z,79.84
2023-02-02T12:51:25.813Z,79.97
2023-02-02T12:53:20.891Z,79.81
2023-02-02T12:55:10.128Z,79.99
2023-02-02T12:57:02.655Z,79.89
2023-02-02T12:58:45.273Z,79.51
2023-02-02T13:00:39.748Z,79.12
2023-02-02T13:02:57.630Z,79.12
2023-02-02T13:05:03.177Z,78.77
2023-02-02T13:07:12.031Z,78.71
2023-02-02T13:08:55.025Z,78.71
2023-02-02T13:10:49.584Z,78.37
2023-02-02T13:12:23.939Z,78.32
2023-02-02T13:14:06.170Z,77.92
2023-02-02T13:15:47.570Z,77.18
2023-02-02T13:17:42.920Z,77.36
2023-02-02T13:19:28.706Z,78.04
2023-02-02T13:21:10.883Z,77.40
2023-02-02T13:22:45.683Z,77.17
2023-02-02T13:24:30.970Z,77.38
2023-02-02T13:26:13.499Z,78.16
2023-02-02T13:27:46.961Z,77.94
2023-02-02T13:29:44.320Z,76.98
2023-02-02T13:31:31.619Z,77.05
2023-02-02T13:33:26.388Z,77.68
2023-02-02T13:35:06.722Z,77.95
2023-02-02T13:36:44.146Z,76.83
2023-02-02T13:38:30.322Z,77.41
2023-02-02T13:40:20.597Z,77.61
2023-02-02T13:41:53.510Z,78.29
2023-02-02T13:44:18.615Z,78.72
2023-02-02T13:45:50.491Z,79.05
2023-02-02T13:47:54.374Z,79.04
2023-02-02T13:49:41.960Z,78.32
2023-02-02T13:51:19.829Z,78.43
2023-02-02T13:53:17.157Z,78.58
2023-02-02T13:55:00.830Z,79.44
2023-02-02T13:56:49.930Z,78.47
2023-02-02T13:58:44.504Z,78.04
2023-02-02T14:00:21.562Z,78.77
2023-02-02T14:01:54.864Z,77.93
2023-02-02T14:03:26.646Z,78.04
2023-02-02T14:05:01.913Z,78.91
2023-02-02T14:06:59.487Z,78.07
2023-02-02T14:08:32.130Z,79.00
2023-02-02T14:10:04.868Z,78.73
2023-02-02T14:11:43.310Z,79.58
2023-02-02T14:13:41.112Z,79.36
2023-02-02T14:15:13.605Z,78.49
2023-02-02T14:16:51.124Z,79.39
2023-02-02T14:18:49.637Z,79.22
2023-02-02T14:20:41.911Z,79.08
2023-02-02T14:22:13.788Z,78.39
2023-02-02T14:23:53.939Z,78.07
2023-02-02T14:25:33.648Z,77.75
2023-02-02T14:27:05.887Z,78.13
2023-02-02T14:28:43.584Z,78.04
2023-02-02T14:30:24.354Z,77.98
2023-02-02T14:31:58.016Z,77.16
2023-02-02T14:33:40.105Z,77.55
2023-02-02T14:35:11.799Z,77.38
2023-02-02T14:37:13.097Z,77.42
2023-02-02T14:39:08.739Z,77.38
2023-02-02T14:41:01.419Z,77.41
2023-02-02T14:43:00.895Z,77.46
2023-02-02T14:44:34.886Z,77.12
2023-02-02T14:46:15.959Z,76.29
2023-02-02T14:48:01.287Z,76.26
2023-02-02T14:49:35.628Z,77.04
2023-02-02T14:51:16.364Z,76.87
2023-02-02T14:52:59.940Z,77.19
2023-02-02T14:54:41.087Z,76.72
2023-02-02T14:56:16.044Z,76.89
2023-02-02T14:58:01.023Z,76.98
2023-02-02T14:59:37.648Z,77.70
2023-02-02T15:01:25.488Z,76.71
2023-02-02T15:03:35.727Z,77.31
2023-02-02T15:05:29.356Z,76.45
2023-02-02T15:07:23.962Z,77.30
2023-02-02T15:09:20.929Z,77.51
2023-02-02T15:10:56.870Z,77.61
2023-02-02T15:12:43.416Z,76.84
2023-02-02T15:14:16.403Z,76.93
2023-02-02T15:15:53.614Z,76.84
2023-02-02T15:17:34.264Z,77.11
2023-02-02T15:19:16.364Z,77.39
2023-02-02T15:20:54.854Z,77.39
2023-02-02T15:22:50.950Z,76.90
2023-02-02T15:24:27.119Z,77.69
2023-02-02T15:26:25.802Z,77.67
2023-02-02T15:28:19.037Z,77.16
2023-02-02T15:29:56.672Z,76.67
2023-02-02T15:31:34.132Z,77.42
2023-02-02T15:33:31.011Z,78.12
2023-02-02T15:35:07.304Z,77.82
2023-02-02T15:36:43.665Z,77.42
2023-02-02T15:38:19.158Z,77.76
2023-02-02T15:39:59.896Z,77.57
2023-02-02T15:41:34.785Z,77.38
2023-02-02T15:43:11.215Z,77.19
2023-02-02T15:44:42.858Z,77.05
2023-02-02T15:46:24.446Z,77.40
2023-02-02T15:47:58.122Z,78.02
2023-02-02T15:49:35.442Z,78.39
2023-02-02T15:51:16.214Z,77.67
2023-02-02T15:52:50.399Z,78.23
2023-02-02T15:54:32.833Z,78.19
2023-02-02T15:56:19.314Z,77.93
2023-02-02T15:57:55.248Z,78.00
2023-02-02T15:59:29.909Z,77.67
2023-02-02T16:01:03.852Z,77.81
2023-02-02T16:02:45.367Z,77.85
2023-02-02T16:04:16.923Z,78.46
2023-02-02T16:05:56.523Z,78.20
2023-02-02T16:07:33.913Z,77.78
2023-02-02T16:09:07.351Z,77.36
2023-02-02T16:10:39.464Z,77.94
2023-02-02T16:12:18.667Z,78.17
2023-02-02T16:13:53.445Z,78.32
2023-02-02T16:15:28.695Z,77.92
2023-02-02T16:17:22.792Z,77.91
2023-02-02T16:19:09.364Z,77.87
2023-02-02T16:20:42.426Z,77.36
2023-02-02T16:22:18.196Z,77.12
2023-02-02T16:23:51.192Z,77.33
2023-02-02T16:25:27.199Z,77.29
2023-02-02T16:27:02.067Z,78.36
2023-02-02T16:28:34.809Z,78.29
2023-02-02T16:30:09.720Z,77.41
2023-02-02T16:31:41.698Z,78.10
2023-02-02T16:33:30.318Z,79.30
2023-02-02T16:35:06.002Z,77.97
2023-02-02T16:36:37.755Z,77.84
2023-02-02T16:38:15.095Z,78.53
2023-02-02T16:39:47.266Z,77.87
2023-02-02T16:41:35.125Z,77.42
2023-02-02T16:43:28.598Z,78.07
2023-02-02T16:45:01.050Z,77.71
2023-02-02T16:46:45.831Z,77.63
2023-02-02T16:48:44.320Z,78.38
2023-02-02T16:50:27.866Z,78.28
2023-02-02T16:52:16.254Z,78.33
2023-02-02T16:53:57.562Z,78.43
2023-02-02T16:55:47.841Z,78.96
2023-02-02T16:57:25.130Z,78.65
2023-02-02T16:59:01.478Z,78.66
2023-02-02T17:00:33.592Z,79.17
2023-02-02T17:02:23.691Z,78.41
2023-02-02T17:03:56.157Z,78.37
2023-02-02T17:05:32.240Z,78.32
2023-02-02T17:07:09.180Z,78.53
2023-02-02T17:08:41.275Z,78.43
2023-02-02T17:10:29.501Z,78.93
2023-02-02T17:12:34.522Z,79.19
2023-02-02T17:14:28.784Z,78.75
2023-02-02T17:16:00.744Z,78.29
2023-02-02T17:17:32.513Z,79.13
2023-02-02T17:19:04.504Z,78.77
2023-02-02T17:20:36.112Z,79.00
2023-02-02T17:22:08.721Z,78.76
2023-02-02T17:23:41.107Z,79.29
2023-02-02T17:25:18.668Z,79.32
2023-02-02T17:26:50.873Z,79.05
2023-02-02T17:28:25.988Z,78.71
2023-02-02T17:30:00.996Z,79.33
2023-02-02T17:31:33.101Z,79.42
2023-02-02T17:33:06.079Z,79.18
2023-02-02T17:34:38.321Z,79.37
2023-02-02T17:36:13.550Z,78.96
2023-02-02T17:37:45.930Z,79.34
2023-02-02T17:39:18.674Z,79.70
2023-02-02T17:40:51.804Z,79.28
2023-02-02T17:42:31.455Z,79.27
2023-02-02T17:44:05.976Z,79.65
2023-02-02T17:45:38.838Z,79.04
2023-02-02T17:47:13.374Z,79.44
2023-02-02T17:48:45.546Z,79.52
2023-02-02T17:50:18.144Z,79.86
2023-02-02T17:51:51.008Z,79.96
2023-02-02T17:53:23.134Z,79.54
2023-02-02T17:54:55.295Z,79.55
2023-02-02T17:56:27.799Z,79.25
2023-02-02T17:58:00.526Z,79.26
2023-02-02T17:59:32.644Z,79.42
2023-02-02T18:01:05.101Z,78.83
2023-02-02T18:02:37.270Z,78.27
2023-02-02T18:04:12.881Z,79.01
2023-02-02T18:05:44.886Z,79.49
2023-02-02T18:07:16.668Z,79.48
2023-02-02T18:08:48.431Z,79.59
2023-02-02T18:10:24.813Z,79.52
2023-02-02T18:11:57.092Z,79.40
2023-02-02T18:13:29.611Z,79.36
2023-02-02T18:15:03.500Z,79.89
2023-02-02T18:16:35.664Z,79.64
2023-02-02T18:18:07.948Z,80.53
2023-02-02T18:19:44.959Z,79.74
2023-02-02T18:21:17.010Z,79.96
2023-02-02T18:22:51.045Z,80.23
2023-02-02T18:24:23.340Z,80.36
2023-02-02T18:25:55.696Z,80.61
2023-02-02T18:27:29.361Z,80.68
2023-02-02T18:29:01.248Z,80.81
2023-02-02T18:30:33.040Z,81.00
2023-02-02T18:32:04.938Z,81.87
2023-02-02T18:33:37.421Z,81.57
2023-02-02T18:35:11.865Z,82.23
2023-02-02T18:36:43.869Z,81.78
2023-02-02T18:38:15.951Z,81.38
2023-02-02T18:39:47.750Z,81.69
2023-02-02T18:41:21.603Z,81.75
2023-02-02T18:42:53.583Z,81.59
2023-02-02T18:44:25.975Z,81.12
2023-02-02T18:46:04.590Z,81.42
2023-02-02T18:47:36.574Z,81.23
2023-02-02T18:49:08.820Z,81.25
2023-02-02T18:50:40.719Z,81.74
2023-02-02T18:52:13.182Z,81.69
2023-02-02T18:53:46.723Z,81.43
2023-02-02T18:55:18.515Z,81.61
2023-02-02T18:56:50.428Z,82.29
2023-02-02T18:58:22.495Z,82.02
2023-02-02T18:59:54.616Z,82.00
2023-02-02T19:01:26.690Z,82.51
2023-02-02T19:02:58.494Z,82.10
2023-02-02T19:04:30.502Z,81.94
2023-02-02T19:06:23.089Z,82.38
2023-02-02T19:07:55.315Z,82.30
2023-02-02T19:09:27.616Z,81.98
2023-02-02T19:11:08.457Z,82.27
2023-02-02T19:12:40.895Z,81.14
2023-02-02T19:14:19.649Z,81.45
2023-02-02T19:15:54.615Z,81.04
2023-02-02T19:17:28.479Z,80.82
2023-02-02T19:19:08.910Z,80.29
2023-02-02T19:20:42.244Z,80.79
2023-02-02T19:22:23.172Z,80.33
2023-02-02T19:23:55.184Z,81.10
2023-02-02T19:25:27.613Z,80.69
2023-02-02T19:27:00.079Z,80.78
2023-02-02T19:28:32.707Z,80.69
2023-02-02T19:30:17.169Z,81.91
2023-02-02T19:32:14.941Z,81.30
2023-02-02T19:33:50.705Z,81.17
2023-02-02T19:35:24.617Z,81.44
2023-02-02T19:36:56.940Z,81.51
2023-02-02T19:38:30.319Z,82.12
2023-02-02T19:40:08.940Z,81.22
2023-02-02T19:41:43.332Z,81.27
2023-02-02T19:43:27.170Z,81.69
2023-02-02T19:44:59.716Z,81.42
2023-02-02T19:46:32.111Z,81.47
2023-02-02T19:48:18.095Z,81.83
2023-02-02T19:49:50.265Z,81.63
2023-02-02T19:51:47.493Z,82.04
2023-02-02T19:53:24.950Z,82.02
2023-02-02T19:54:57.133Z,81.56
2023-02-02T19:56:37.877Z,82.32
2023-02-02T19:58:28.805Z,81.76
2023-02-02T20:00:11.265Z,82.28
2023-02-02T20:01:46.050Z,83.02
2023-02-02T20:03:20.730Z,83.25
2023-02-02T20:05:23.413Z,83.82
2023-02-02T20:06:59.750Z,83.45
2023-02-02T20:08:43.620Z,83.62
2023-02-02T20:10:20.731Z,83.34
2023-02-02T20:11:53.264Z,83.89
2023-02-02T20:13:35.822Z,84.05
2023-02-02T20:15:35.603Z,84.14
2023-02-02T20:17:23.303Z,83.14
2023-02-02T20:18:57.773Z,83.13
2023-02-02T20:20:37.759Z,83.03
2023-02-02T20:22:28.377Z,83.00
2023-02-02T20:24:01.132Z,83.06
2023-02-02T20:25:33.060Z,82.58
2023-02-02T20:27:14.192Z,81.85
2023-02-02T20:28:46.335Z,82.11
2023-02-02T20:30:27.781Z,81.84
2023-02-02T20:31:59.686Z,81.45
2023-02-02T20:33:33.181Z,81.98
2023-02-02T20:35:23.145Z,82.95
2023-02-02T20:37:13.295Z,82.57
2023-02-02T20:38:45.767Z,83.30
2023-02-02T20:40:20.576Z,83.51
2023-02-02T20:41:54.901Z,83.30
2023-02-02T20:43:26.773Z,82.63
2023-02-02T20:44:58.489Z,82.88
2023-02-02T20:46:30.239Z,82.97
2023-02-02T20:48:01.992Z,82.29
2023-02-02T20:49:34.621Z,82.11
2023-02-02T20:51:06.808Z,82.30
2023-02-02T20:52:39.011Z,82.49
2023-02-02T20:54:10.977Z,81.68
2023-02-02T20:55:44.687Z,82.04